Aviation Digital Data Service (ADDS)

Output produced by METARs form (1111 UTC 19 January 2019)
found at http://www.aviationweather.gov/metar/data/
 
KAID 191055Z AUTO 08009KT 3SM UP OVC008 00/M01 A2991 RMK AO2 T00001010
KANQ 191055Z AUTO 08015G22KT 10SM BKN013 OVC019 M05/M07 A3003 RMK AO2
KGWB 191055Z AUTO 07016G20KT 10SM OVC009 M03/M05 A3003 RMK AO2
KBMG 191053Z AUTO 09012KT 5SM -RA BR OVC006 02/02 A2977 RMK AO2 SLP085 P0011 T00220017
KBMG 190546Z 1906/2006 09009KT P6SM VCSH OVC010 
     FM190900 09009KT 6SM RA BR OVC008 
     FM192000 03014G26KT 2SM -SN BR OVC006 
     FM200000 02018G32KT 1 1/2SM -SN BR OVC008 
     FM200400 01015G25KT P6SM OVC020 AMD LTD TO CLD VIS AND WIND TIL 191400
       
KCFJ 191055Z AUTO 07012KT 5SM -SN OVC007 00/00 A2984 RMK AO2 P0003 T10051005
KEVV 191054Z AUTO 07010KT 5SM +RA BR OVC006 05/05 A2969 RMK AO2 SLP057 P0010 T00500050
KEVV 190701Z 1907/2006 VRB05KT 5SM -RA BR OVC016 
     FM190800 09011KT 4SM -SHRA BR VCTS OVC007CB 
     FM191400 05011KT 3SM -RA BR OVC004 
     FM191700 01013G23KT 4SM -RA BR OVC007 
     FM192300 35020G33KT 3SM -SN BR OVC007 
     FM200400 34020G32KT P6SM OVC010
       
KFWA 191108Z 07016KT 1 3/4SM -SN BR OVC010 M03/M04 A3000 RMK AO2 PK WND 07026/1055 P0000 T10281044
KFWA 191034Z 1911/2006 07019G27KT 2SM -SN OVC012 
     FM191230 07018G26KT 3/4SM -SN BLSN OVC009 
     TEMPO 1913/1917 1/2SM SN FZFG BLSN BKN006 
     FM191800 05018G26KT 1 1/2SM -SN OVC008 
     FM192300 03024G32KT 3SM -SN BLSN OVC015
       
KFKR 191055Z AUTO 10016G22KT 3SM -SN OVC006 01/M01 A2988 RMK AO2 T00071007 TSNO
KFRH 191055Z AUTO 07009KT 4SM OVC005 02/00 A2975 RMK AO1
KGYY 191045Z 12022KT 2SM -SN OVC009 M02/M03 A2999
KGYY 190903Z 1909/2006 06014G22KT 1 1/2SM -SN BR BKN012 OVC020 
     TEMPO 1909/1911 3/4SM -SN OVC009 
     FM191300 04016G25KT 2SM -SN OVC010 
     FM191600 03018G29KT 2SM -SN BLSN OVC010 
     FM191900 02018G29KT 6SM BLSN OVC012 
     FM200000 01017G27KT 6SM -SN BLSN SCT015 BKN025
       
KGSH 191103Z AUTO 08016G24KT 3/4SM -SN BR VV014 M04/M06 A2999 RMK AO2 P0000 T10441061
KHNB 191056Z AUTO 09012KT 5SM -RA BR BKN008 OVC014 04/04 A2972 RMK AO2 CIG 005V011 SLP066 P0014 T00440039
KHNB 191030Z 1911/2006 09012KT 3SM -SHRA OVC006 
     FM191200 05012G20KT 2SM SHRA OVC006 
     FM191800 01014G21KT 2SM SHRA OVC006 
     FM192300 35023G33KT 2SM -SN OVC006 
     FM200200 33021G32KT 3SM -SN OVC011
       
KHHG 191055Z AUTO 07012G19KT 1 1/2SM -SN OVC008 M03/M04 A2999 RMK AO2 T10321038
KEYE 191053Z AUTO 06009KT 5SM -RA BR OVC007 01/M01 A2985 RMK AO2 UPB0956E00RAB00 SLP114 P0005 T00061011
KHFY 191055Z AUTO 08011G14KT 4SM OVC009 00/M01 A2985 RMK AO2 T00001007
KTYQ 191055Z AUTO 07012G19KT 2 1/2SM -SN OVC007 M01/M01 A2988 RMK AO2 P0001 T10071007
KIND 191054Z 06013G21KT 4SM -RA BR OVC008 01/M01 A2984 RMK AO2 SLP110 P0005 T00061006
KIND 190836Z 1909/2012 08011KT 6SM -SN BR OVC007 
     FM191100 07012KT 1 1/2SM -FZRASN BR OVC007 
     FM191600 04016G26KT 1 1/2SM -SN BR OVC007 
     FM192200 03019G29KT 1SM -SN BLSN OVC008 
     FM200100 02019G28KT 6SM BR BLSN OVC010 
     FM200500 36016G26KT P6SM BKN050
       
KMQJ 191056Z AUTO 07011KT 3SM OVC011 00/00 A2987 RMK AO1
KJVY 191055Z AUTO 03003KT 2 1/2SM UP BKN011 OVC017 04/03 A2982 RMK AO2 P0010 T00400030
KC62 191055Z AUTO 08014G21KT 10SM OVC010 M04/M07 A3002 RMK AO2 T10441074
KOXI 191055Z AUTO 08015G19KT 1 1/2SM OVC011 M02/M04 A2995 RMK AO1
KOKK 191056Z AUTO 08019G24KT 2SM -SN BR OVC006 M02/M02 A2990 RMK AO2 UPB01E06SNE01B06 CIG 005V010 PRESFR SLP138 P0000 T10171022 FZRANO
KLAF 191054Z AUTO 08014G23KT 1 1/2SM -SN BR BKN008 OVC013 M01/M01 A2987 RMK AO2 CIG 006V011 SLP120 P0002 T10061011
KLAF 190520Z 1906/2006 08010KT P6SM VCSH OVC015 
     FM190900 08013KT 4SM -SN BR OVC010 
     FM191000 07014KT 1SM -SN BR OVC012 
     FM191500 05017G25KT 3/4SM -SN BR OVC012 
     FM191900 04019G29KT 2SM -SN BLSN BR OVC012 
     FM200000 02019G31KT 6SM BR BLSN OVC012 
     FM200200 02018G26KT 6SM BR BLSN OVC022 AMD LTD TO CLD VIS AND WIND TIL
191400
       
KPPO 191055Z AUTO 07015KT 1 1/4SM -SN SCT085 SCT110 M04/M05 A2996 RMK AO2 T10411051
KGGP 191055Z AUTO 08014G20KT 1SM -SN OVC006 M02/M02 A2991 RMK AO2
KIMS 191055Z AUTO 08008G14KT 5SM SCT029 BKN044 OVC050 02/02 A2985 RMK AO1
KMZZ 191055Z AUTO 08015G20KT 2 1/2SM UP OVC006 A2994 RMK AO2
KMGC 191055Z AUTO 07008G16KT 030V110 2 1/2SM -SN OVC014 M03/M06 A2998 RMK AO2
KMCX 191055Z AUTO 07009G18KT 2 1/2SM -SN OVC008 M02/M02 A2989 RMK AO2 T10161023
KMIE 191106Z 08015G21KT 4SM BR OVC007 00/M02 A2991 RMK AO2 FZRAE06 CIG 005V010 P0000 I1000 T00001017
KGUS 191056Z AUTO 08010KT 1 1/2SM -SN BR OVC009 M02/M02 A2990 RMK AO2 PRESFR SLP137 P0002 T10191019 $
TAF AMD KGUS 191005Z 1910/2009 08012G18KT 4800 -SN OVC007 620079 QNH2993INS 
     TEMPO 1910/1911 -FZDZ 660002 
     TEMPO 1911/1912 08015G25KT -FZDZ 660002 
     BECMG 1915/1916 08015G25KT 3200 -SN OVC003 620039 QNH2990INS 
     TEMPO 1918/1921 08025G35KT 1600 -SN BLSN 530003 
     BECMG 2002/2003 01015G25KT 9999 NSW BKN009 620099 QNH3000INS 
     BECMG 2008/2009 36012KT 9999 SCT009 BKN015 620159 QNH3012INS TX00/1915Z
TNM06/2002Z
       
KC65 191055Z AUTO 08014G22KT 1 1/4SM BR OVC003 M04/M04 A2996 RMK A01
KPLD 191055Z AUTO 09008KT 2SM BR OVC006 00/00 A2996 RMK AO2
KRZL 191055Z AUTO 07015G23KT 1 3/4SM -SN OVC007 M01/M02 A2991 RMK AO2
KRID 191055Z AUTO 4SM BR OVC006 00/00 A2990 RMK AO2
KRCR 191055Z AUTO 08014G20KT 1SM -SN OVC005 M01/M03 A2995 RMK AO2
KGEZ 191053Z AUTO 08016KT 5SM RA BR BKN010 OVC015 01/M01 A2983 RMK AO2 RAB0959E15B29UPB15E18 CIG 008V014 PRESFR SLP107 P0003 T00111011
KHUF 191053Z 08015KT 6SM -RA BR OVC008 02/01 A2978 RMK AO2 CIG 006V012 SLP087 P0008 T00170011
KHUF 190520Z 1906/2006 09009KT P6SM VCSH OVC010 
     FM190800 08013KT 5SM RASN BR OVC008 
     FM191500 05014KT 2SM RASN BR OVC008 
     FM191800 03018G27KT 2SM -SN BR OVC007 
     FM200000 01020G31KT 6SM BR BLSN OVC010 
     FM200400 36017G25KT 6SM BR BLSN OVC040
       
KVPZ 191101Z AUTO 07018KT 3/4SM -SN VV009 M02/M06 A2995 RMK AO2 P0000 T10221056 TSNO
KASW 191055Z AUTO 09013G22KT 3SM -SN OVC012 M03/M05 A3000 RMK AO2
KDCY 191055Z AUTO 10014G18KT 5SM -RA SCT008 BKN045 OVC065 03/03 A2974 RMK AO2 P0013 T00340025